createdAt,value
2022-08-20T00:01:01.631Z,738.57
2022-08-20T00:03:28.877Z,732.27
2022-08-20T00:05:56.635Z,736.30
2022-08-20T00:08:23.311Z,733.10
2022-08-20T00:10:53.686Z,735.07
2022-08-20T00:13:21.938Z,734.70
2022-08-20T00:15:48.379Z,729.03
2022-08-20T00:18:14.882Z,734.53
2022-08-20T00:20:41.328Z,739.17
2022-08-20T00:23:10.493Z,744.57
2022-08-20T00:25:37.252Z,733.37
2022-08-20T00:28:03.693Z,741.67
2022-08-20T00:30:30.150Z,745.27
2022-08-20T00:32:56.596Z,743.87
2022-08-20T00:35:23.069Z,744.83
2022-08-20T00:37:49.512Z,750.83
2022-08-20T00:40:22.053Z,747.50
2022-08-20T00:42:49.035Z,741.37
2022-08-20T00:45:15.458Z,737.23
2022-08-20T00:47:41.933Z,739.80
2022-08-20T00:50:18.072Z,739.87
2022-08-20T00:52:49.841Z,743.63
2022-08-20T00:55:16.795Z,742.90
2022-08-20T00:57:58.958Z,739.00
2022-08-20T01:00:28.057Z,743.20
2022-08-20T01:02:54.511Z,744.10
2022-08-20T01:05:20.933Z,745.30
2022-08-20T01:07:55.248Z,742.43
2022-08-20T01:10:21.855Z,743.03
2022-08-20T01:12:48.312Z,745.90
2022-08-20T01:15:22.139Z,741.83
2022-08-20T01:17:57.819Z,731.13
2022-08-20T01:20:24.279Z,734.20
2022-08-20T01:22:50.716Z,742.07
2022-08-20T01:25:17.168Z,736.30
2022-08-20T01:27:43.679Z,730.77
2022-08-20T01:30:11.832Z,735.60
2022-08-20T01:32:38.281Z,745.43
2022-08-20T01:35:04.743Z,748.73
2022-08-20T01:37:31.683Z,754.77
2022-08-20T01:39:58.424Z,746.80
2022-08-20T01:42:24.964Z,740.67
2022-08-20T01:44:51.414Z,745.13
2022-08-20T01:47:17.899Z,743.33
2022-08-20T01:49:44.346Z,743.73
2022-08-20T01:52:10.796Z,749.63
2022-08-20T01:54:37.264Z,746.93
2022-08-20T01:57:03.729Z,750.87
2022-08-20T01:59:30.207Z,748.87
2022-08-20T02:01:56.681Z,750.40
2022-08-20T02:04:23.142Z,752.53
2022-08-20T02:06:56.097Z,761.17
2022-08-20T02:09:24.074Z,759.90
2022-08-20T02:11:50.506Z,758.37
2022-08-20T02:14:16.967Z,763.73
2022-08-20T02:16:43.417Z,761.33
2022-08-20T02:19:18.989Z,748.83
2022-08-20T02:21:46.417Z,751.13
2022-08-20T02:24:12.871Z,752.20
2022-08-20T02:26:39.320Z,754.53
2022-08-20T02:29:06.791Z,755.20
2022-08-20T02:31:35.054Z,750.80
2022-08-20T02:34:19.755Z,751.40
2022-08-20T02:36:48.048Z,748.80
2022-08-20T02:39:14.497Z,751.37
2022-08-20T02:41:40.949Z,751.80
2022-08-20T02:44:07.477Z,757.33
2022-08-20T02:46:33.911Z,748.60
2022-08-20T02:49:00.397Z,756.70
2022-08-20T02:51:30.384Z,746.00
2022-08-20T02:53:57.255Z,748.93
2022-08-20T02:56:23.744Z,751.70
2022-08-20T02:58:50.232Z,754.20
2022-08-20T03:01:16.752Z,746.40
2022-08-20T03:03:43.250Z,754.80
2022-08-20T03:06:09.715Z,743.93
2022-08-20T03:08:36.173Z,766.00
2022-08-20T03:11:02.638Z,765.60
2022-08-20T03:13:29.105Z,756.17
2022-08-20T03:15:58.854Z,764.00
2022-08-20T03:18:25.682Z,754.23
2022-08-20T03:20:52.361Z,760.73
2022-08-20T03:23:18.837Z,751.10
2022-08-20T03:25:45.306Z,759.00
2022-08-20T03:28:11.759Z,758.30
2022-08-20T03:30:38.231Z,757.27
2022-08-20T03:33:04.673Z,753.80
2022-08-20T03:35:31.137Z,754.63
2022-08-20T03:37:57.767Z,756.60
2022-08-20T03:40:24.301Z,753.63
2022-08-20T03:42:50.758Z,752.83
2022-08-20T03:45:20.401Z,740.40
2022-08-20T03:47:47.085Z,760.77
2022-08-20T03:50:14.763Z,765.30
2022-08-20T03:52:49.260Z,760.60
2022-08-20T03:55:15.730Z,767.33
2022-08-20T03:57:42.195Z,765.30
2022-08-20T04:00:08.652Z,763.20
2022-08-20T04:02:36.144Z,767.80
2022-08-20T04:05:02.920Z,759.97
2022-08-20T04:07:29.346Z,780.40
2022-08-20T04:09:55.846Z,783.93
2022-08-20T04:12:22.293Z,781.53
2022-08-20T04:14:48.769Z,781.23
2022-08-20T04:17:16.081Z,775.20
2022-08-20T04:19:42.561Z,781.90
2022-08-20T04:22:09.012Z,781.57
2022-08-20T04:24:35.472Z,787.10
2022-08-20T04:27:01.915Z,789.00
2022-08-20T04:29:32.234Z,786.10
2022-08-20T04:31:59.226Z,785.83
2022-08-20T04:34:25.692Z,788.30
2022-08-20T04:36:52.149Z,788.00
2022-08-20T04:39:18.612Z,789.63
2022-08-20T04:41:45.053Z,789.10
2022-08-20T04:44:11.507Z,785.27
2022-08-20T04:46:37.957Z,785.23
2022-08-20T04:49:04.399Z,784.20
2022-08-20T04:51:30.829Z,785.23
2022-08-20T04:53:58.191Z,784.97
2022-08-20T04:56:24.686Z,782.67
2022-08-20T04:58:51.403Z,785.83
2022-08-20T05:01:18.011Z,787.53
2022-08-20T05:03:44.547Z,782.10
2022-08-20T05:06:11.014Z,786.57
2022-08-20T05:08:37.486Z,788.53
2022-08-20T05:11:27.564Z,788.20
2022-08-20T05:13:50.373Z,777.97
2022-08-20T05:16:16.815Z,784.03
2022-08-20T05:18:43.300Z,789.40
2022-08-20T05:21:09.765Z,784.00
2022-08-20T05:23:36.216Z,788.77
2022-08-20T05:26:02.680Z,790.00
2022-08-20T05:28:29.878Z,787.20
2022-08-20T05:30:56.326Z,784.90
2022-08-20T05:33:22.763Z,791.07
2022-08-20T05:35:49.241Z,787.03
2022-08-20T05:38:15.683Z,792.10
2022-08-20T05:40:42.172Z,789.60
2022-08-20T05:43:08.629Z,792.73
2022-08-20T05:45:35.092Z,794.43
2022-08-20T05:48:03.402Z,790.23
2022-08-20T05:50:30.041Z,783.90
2022-08-20T05:52:56.470Z,784.60
2022-08-20T05:55:22.951Z,793.53
2022-08-20T05:57:49.426Z,788.83
2022-08-20T06:00:15.966Z,790.33
2022-08-20T06:02:42.404Z,789.20
2022-08-20T06:05:08.845Z,789.27
2022-08-20T06:07:35.266Z,790.37
2022-08-20T06:10:01.697Z,789.83
2022-08-20T06:12:28.115Z,790.43
2022-08-20T06:14:54.579Z,787.57
2022-08-20T06:17:22.139Z,791.60
2022-08-20T06:19:48.860Z,786.30
2022-08-20T06:22:20.534Z,792.17
2022-08-20T06:24:51.431Z,787.60
2022-08-20T06:27:17.893Z,792.90
2022-08-20T06:29:44.347Z,794.53
2022-08-20T06:32:10.780Z,790.33
2022-08-20T06:34:37.227Z,785.73
2022-08-20T06:37:03.653Z,789.80
2022-08-20T06:39:30.094Z,788.80
2022-08-20T06:41:56.527Z,790.93
2022-08-20T06:44:23.110Z,791.30
2022-08-20T06:46:49.571Z,792.00
2022-08-20T06:49:16.040Z,790.80
2022-08-20T06:51:42.486Z,794.77
2022-08-20T06:54:08.940Z,790.53
2022-08-20T06:56:35.405Z,796.60
2022-08-20T06:59:01.846Z,791.03
2022-08-20T07:01:28.349Z,789.30
2022-08-20T07:03:56.258Z,786.70
2022-08-20T07:06:22.763Z,837.37
2022-08-20T07:08:49.344Z,790.70
2022-08-20T07:11:15.836Z,790.30
2022-08-20T07:13:42.336Z,790.60
2022-08-20T07:16:09.946Z,788.77
2022-08-20T07:18:38.234Z,791.70
2022-08-20T07:21:04.703Z,788.83
2022-08-20T07:23:31.150Z,790.20
2022-08-20T07:25:57.600Z,784.70
2022-08-20T07:28:24.072Z,846.73
2022-08-20T07:30:57.029Z,789.07
2022-08-20T07:33:24.378Z,787.47
2022-08-20T07:35:51.114Z,789.90
2022-08-20T07:38:17.551Z,788.50
2022-08-20T07:40:44.001Z,792.90
2022-08-20T07:43:10.439Z,793.90
2022-08-20T07:45:38.017Z,791.10
2022-08-20T07:48:04.443Z,789.50
2022-08-20T07:50:30.901Z,791.23
2022-08-20T07:52:57.501Z,789.20
2022-08-20T07:55:24.042Z,794.03
2022-08-20T07:57:50.500Z,797.93
2022-08-20T08:00:16.953Z,790.30
2022-08-20T08:02:43.382Z,792.47
2022-08-20T08:05:09.848Z,791.10
2022-08-20T08:07:36.276Z,788.43
2022-08-20T08:10:04.258Z,792.50
2022-08-20T08:12:33.719Z,794.40
2022-08-20T08:15:00.203Z,793.60
2022-08-20T08:17:26.651Z,781.83
2022-08-20T08:19:53.117Z,788.13
2022-08-20T08:22:19.567Z,788.40
2022-08-20T08:24:56.917Z,776.70
2022-08-20T08:27:23.935Z,778.17
2022-08-20T08:29:50.379Z,778.17
2022-08-20T08:32:17.059Z,773.33
2022-08-20T08:34:43.512Z,771.20
2022-08-20T08:37:09.965Z,776.23
2022-08-20T08:39:36.539Z,785.93
2022-08-20T08:42:03.567Z,794.60
2022-08-20T08:44:30.016Z,792.50
2022-08-20T08:46:56.455Z,788.60
2022-08-20T08:49:22.920Z,785.37
2022-08-20T08:51:49.360Z,777.67
2022-08-20T08:54:15.817Z,779.13
2022-08-20T08:56:42.253Z,761.07
2022-08-20T08:59:16.026Z,759.30
2022-08-20T09:01:55.163Z,790.63
2022-08-20T09:04:22.913Z,790.70
2022-08-20T09:06:52.152Z,760.87
2022-08-20T09:09:18.881Z,789.40
2022-08-20T09:11:45.323Z,779.80
2022-08-20T09:14:11.771Z,760.67
2022-08-20T09:16:52.293Z,763.47
2022-08-20T09:19:19.643Z,776.33
2022-08-20T09:21:46.085Z,780.20
2022-08-20T09:24:12.538Z,774.30
2022-08-20T09:26:39.343Z,777.07
2022-08-20T09:29:05.845Z,771.13
2022-08-20T09:31:32.730Z,755.77
2022-08-20T09:33:59.558Z,753.23
2022-08-20T09:36:31.615Z,767.40
2022-08-20T09:38:59.152Z,773.30
2022-08-20T09:41:25.586Z,773.80
2022-08-20T09:43:52.021Z,763.90
2022-08-20T09:46:18.473Z,756.17
2022-08-20T09:48:44.952Z,746.90
2022-08-20T09:51:11.396Z,761.63
2022-08-20T09:53:37.848Z,747.03
2022-08-20T09:56:04.367Z,736.80
2022-08-20T09:58:30.809Z,733.53
2022-08-20T10:00:57.258Z,734.70
2022-08-20T10:03:23.693Z,736.67
2022-08-20T10:05:50.156Z,729.87
2022-08-20T10:08:16.614Z,738.50
2022-08-20T10:10:43.063Z,731.70
2022-08-20T10:13:09.495Z,738.07
2022-08-20T10:15:39.835Z,728.50
2022-08-20T10:18:08.402Z,726.90
2022-08-20T10:20:34.908Z,738.53
2022-08-20T10:23:01.416Z,742.30
2022-08-20T10:25:27.992Z,736.97
2022-08-20T10:27:54.440Z,736.17
2022-08-20T10:30:20.923Z,739.03
2022-08-20T10:32:47.375Z,732.13
2022-08-20T10:35:13.858Z,738.10
2022-08-20T10:37:40.348Z,736.27
2022-08-20T10:40:06.897Z,737.93
2022-08-20T10:42:33.395Z,740.77
2022-08-20T10:44:59.877Z,740.77
2022-08-20T10:47:26.325Z,736.57
2022-08-20T10:49:52.782Z,743.20
2022-08-20T10:52:19.285Z,743.57
2022-08-20T10:54:45.792Z,739.20
2022-08-20T10:57:12.366Z,743.33
2022-08-20T10:59:38.858Z,743.17
2022-08-20T11:02:05.496Z,744.90
2022-08-20T11:04:35.109Z,739.77
2022-08-20T11:07:01.579Z,740.97
2022-08-20T11:09:28.035Z,740.97
2022-08-20T11:11:54.523Z,744.43
2022-08-20T11:14:20.993Z,748.77
2022-08-20T11:16:47.491Z,747.20
2022-08-20T11:19:13.965Z,755.30
2022-08-20T11:21:40.441Z,753.87
2022-08-20T11:24:06.933Z,746.70
2022-08-20T11:26:33.415Z,748.47
2022-08-20T11:28:59.859Z,754.33
2022-08-20T11:31:26.324Z,743.10
2022-08-20T11:33:52.745Z,746.63
2022-08-20T11:36:19.223Z,748.60
2022-08-20T11:38:45.667Z,754.87
2022-08-20T11:41:12.105Z,754.30
2022-08-20T11:43:38.549Z,759.13
2022-08-20T11:46:05.011Z,754.17
2022-08-20T11:48:31.442Z,754.00
2022-08-20T11:50:57.904Z,759.23
2022-08-20T11:53:24.407Z,759.50
2022-08-20T11:55:51.843Z,757.07
2022-08-20T11:58:19.236Z,756.50
2022-08-20T12:00:45.699Z,762.10
2022-08-20T12:03:12.332Z,754.80
2022-08-20T12:05:38.859Z,757.97
2022-08-20T12:08:05.301Z,753.40
2022-08-20T12:10:31.767Z,752.93
2022-08-20T12:12:58.500Z,752.07
2022-08-20T12:15:25.218Z,766.47
2022-08-20T12:17:51.657Z,762.60
2022-08-20T12:20:18.097Z,759.00
2022-08-20T12:22:44.557Z,755.07
2022-08-20T12:25:11.217Z,758.10
2022-08-20T12:27:37.772Z,754.67
2022-08-20T12:30:04.253Z,766.33
2022-08-20T12:32:30.822Z,754.00
2022-08-20T12:34:57.290Z,755.20
2022-08-20T12:37:23.728Z,758.50
2022-08-20T12:39:50.271Z,758.20
2022-08-20T12:42:16.800Z,758.20
2022-08-20T12:44:43.231Z,746.47
2022-08-20T12:47:09.700Z,755.10
2022-08-20T12:49:36.164Z,750.27
2022-08-20T12:52:02.623Z,753.87
2022-08-20T12:54:29.050Z,753.40
2022-08-20T12:56:55.499Z,752.47
2022-08-20T12:59:25.418Z,748.90
2022-08-20T13:01:52.574Z,755.37
2022-08-20T13:04:19.056Z,755.47
2022-08-20T13:06:45.496Z,753.17
2022-08-20T13:09:12.909Z,759.20
2022-08-20T13:11:39.360Z,761.30
2022-08-20T13:14:05.801Z,761.80
2022-08-20T13:16:32.252Z,757.57
2022-08-20T13:18:58.680Z,762.63
2022-08-20T13:21:25.113Z,760.77
2022-08-20T13:23:51.543Z,761.50
2022-08-20T13:26:18.004Z,762.07
2022-08-20T13:28:44.441Z,776.10
2022-08-20T13:31:10.925Z,772.87
2022-08-20T13:33:37.375Z,767.30
2022-08-20T13:36:03.810Z,773.13
2022-08-20T13:38:30.256Z,768.30
2022-08-20T13:40:56.704Z,764.53
2022-08-20T13:43:23.126Z,752.53
2022-08-20T13:45:49.629Z,758.60
2022-08-20T13:48:16.043Z,754.33
2022-08-20T13:50:42.475Z,750.57
2022-08-20T13:53:08.922Z,753.37
2022-08-20T13:55:35.382Z,756.20
2022-08-20T13:58:05.057Z,755.37
2022-08-20T14:00:32.370Z,756.63
2022-08-20T14:02:59.093Z,758.07
2022-08-20T14:05:25.718Z,764.03
2022-08-20T14:07:52.157Z,755.73
2022-08-20T14:10:18.616Z,754.33
2022-08-20T14:12:45.895Z,755.37
2022-08-20T14:15:12.352Z,759.90
2022-08-20T14:17:38.803Z,753.87
2022-08-20T14:20:06.407Z,753.17
2022-08-20T14:22:33.114Z,756.63
2022-08-20T14:24:59.574Z,751.77
2022-08-20T14:27:31.011Z,753.27
2022-08-20T14:29:57.746Z,750.87
2022-08-20T14:32:24.214Z,752.33
2022-08-20T14:34:50.671Z,755.37
2022-08-20T14:37:17.110Z,752.40
2022-08-20T14:39:43.593Z,757.87
2022-08-20T14:42:10.088Z,756.00
2022-08-20T14:44:36.590Z,750.87
2022-08-20T14:47:03.050Z,754.20
2022-08-20T14:49:29.519Z,753.97
2022-08-20T14:51:58.987Z,749.70
2022-08-20T14:54:25.434Z,753.17
2022-08-20T14:56:51.897Z,747.97
2022-08-20T14:59:18.324Z,756.90
2022-08-20T15:01:44.782Z,753.73
2022-08-20T15:04:11.214Z,745.57
2022-08-20T15:06:37.752Z,747.50
2022-08-20T15:09:05.320Z,743.20
2022-08-20T15:11:34.577Z,751.33
2022-08-20T15:14:01.200Z,752.90
2022-08-20T15:16:28.382Z,753.27
2022-08-20T15:18:58.151Z,748.97
2022-08-20T15:21:26.530Z,751.17
2022-08-20T15:23:55.371Z,748.17
2022-08-20T15:26:21.824Z,746.97
2022-08-20T15:28:48.267Z,748.07
2022-08-20T15:31:14.723Z,744.67
2022-08-20T15:33:41.174Z,747.33
2022-08-20T15:36:07.612Z,751.80
2022-08-20T15:38:34.075Z,742.60
2022-08-20T15:41:00.578Z,744.53
2022-08-20T15:43:27.009Z,742.73
2022-08-20T15:45:53.458Z,739.87
2022-08-20T15:48:19.980Z,746.43
2022-08-20T15:50:46.448Z,745.73
2022-08-20T15:53:12.882Z,736.70
2022-08-20T15:55:39.334Z,748.17
2022-08-20T15:58:05.792Z,743.40
2022-08-20T16:00:32.225Z,748.07
2022-08-20T16:02:58.846Z,731.77
2022-08-20T16:05:25.416Z,735.03
2022-08-20T16:07:51.853Z,737.30
2022-08-20T16:10:18.444Z,742.27
2022-08-20T16:12:44.903Z,742.53
2022-08-20T16:15:11.364Z,735.93
2022-08-20T16:17:37.838Z,737.20
2022-08-20T16:20:04.326Z,737.70
2022-08-20T16:22:30.787Z,736.77
2022-08-20T16:24:57.229Z,741.10
2022-08-20T16:27:23.705Z,747.23
2022-08-20T16:29:50.136Z,738.57
2022-08-20T16:32:16.711Z,747.83
2022-08-20T16:34:43.167Z,744.97
2022-08-20T16:37:09.627Z,744.93
2022-08-20T16:39:36.118Z,750.30
2022-08-20T16:42:05.667Z,747.73
2022-08-20T16:44:32.488Z,743.27
2022-08-20T16:46:58.964Z,747.47
2022-08-20T16:49:25.525Z,746.03
2022-08-20T16:51:52.312Z,748.50
2022-08-20T16:54:18.817Z,746.67
2022-08-20T16:56:54.786Z,751.93
2022-08-20T16:59:27.230Z,744.93
2022-08-20T17:01:53.921Z,754.13
2022-08-20T17:04:28.463Z,754.37
2022-08-20T17:06:54.983Z,742.30
2022-08-20T17:09:21.712Z,740.20
2022-08-20T17:11:48.174Z,741.47
2022-08-20T17:14:14.613Z,745.67
2022-08-20T17:16:41.098Z,747.77
2022-08-20T17:19:07.561Z,745.37
2022-08-20T17:21:34.050Z,747.47
2022-08-20T17:24:00.565Z,746.13
2022-08-20T17:26:27.213Z,744.97
2022-08-20T17:28:53.672Z,738.50
2022-08-20T17:31:20.147Z,741.00
2022-08-20T17:33:46.836Z,738.80
2022-08-20T17:36:13.402Z,736.77
2022-08-20T17:38:39.839Z,744.47
2022-08-20T17:41:06.298Z,746.10
2022-08-20T17:43:32.754Z,746.80
2022-08-20T17:45:59.219Z,752.43
2022-08-20T17:48:27.051Z,746.10
2022-08-20T17:50:53.548Z,743.50
2022-08-20T17:53:23.403Z,743.50
2022-08-20T17:55:50.254Z,750.83
2022-08-20T17:58:16.743Z,748.57
2022-08-20T18:00:43.390Z,753.70
2022-08-20T18:03:09.854Z,747.67
2022-08-20T18:05:36.354Z,749.50
2022-08-20T18:08:02.927Z,756.00
2022-08-20T18:10:29.710Z,752.97
2022-08-20T18:12:56.395Z,758.07
2022-08-20T18:15:24.683Z,754.27
2022-08-20T18:17:51.438Z,759.57
2022-08-20T18:20:18.111Z,760.07
2022-08-20T18:22:44.627Z,762.70
2022-08-20T18:25:11.230Z,755.30
2022-08-20T18:27:37.780Z,759.90
2022-08-20T18:30:04.305Z,763.97
2022-08-20T18:32:30.888Z,760.10
2022-08-20T18:35:02.105Z,762.87
2022-08-20T18:37:30.279Z,759.10
2022-08-20T18:39:56.886Z,762.40
2022-08-20T18:42:23.419Z,765.13
2022-08-20T18:44:49.879Z,756.67
2022-08-20T18:47:17.704Z,760.40
2022-08-20T18:49:44.180Z,764.10
2022-08-20T18:52:10.734Z,761.77
2022-08-20T18:54:37.415Z,767.17
2022-08-20T18:57:07.787Z,766.33
2022-08-20T18:59:34.328Z,766.37
2022-08-20T19:02:00.898Z,765.33
2022-08-20T19:09:54.514Z,762.83
2022-08-20T19:12:22.722Z,763.50
2022-08-20T19:14:49.308Z,767.40
2022-08-20T19:17:16.045Z,761.27
2022-08-20T19:19:42.552Z,757.53
2022-08-20T19:22:09.138Z,764.47
2022-08-20T19:24:43.205Z,758.90
2022-08-20T19:27:11.030Z,763.50
2022-08-20T19:29:37.808Z,759.60
2022-08-20T19:34:54.769Z,765.37
2022-08-20T19:37:35.331Z,769.17
2022-08-20T19:40:06.655Z,761.20
2022-08-20T19:42:33.158Z,764.67
2022-08-20T19:44:59.610Z,763.93
2022-08-20T19:47:26.105Z,756.97
2022-08-20T19:49:52.599Z,759.23
2022-08-20T19:52:19.069Z,755.67
2022-08-20T19:54:45.562Z,756.13
2022-08-20T19:57:12.033Z,746.73
2022-08-20T19:59:38.580Z,754.60
2022-08-20T20:02:20.410Z,744.90
2022-08-20T20:04:55.571Z,749.40
2022-08-20T20:07:24.385Z,754.40
2022-08-20T20:09:50.841Z,747.20
2022-08-20T20:12:22.445Z,754.30
2022-08-20T20:14:49.587Z,755.03
2022-08-20T20:17:21.006Z,754.10
2022-08-20T20:19:49.326Z,755.10
2022-08-20T20:22:20.223Z,757.87
2022-08-20T20:24:46.940Z,756.40
2022-08-20T20:27:14.803Z,758.90
2022-08-20T20:29:46.518Z,754.47
2022-08-20T20:32:12.976Z,761.53
2022-08-20T20:34:55.388Z,763.60
2022-08-20T20:37:41.574Z,764.37
2022-08-20T20:40:12.990Z,765.47
2022-08-20T20:42:46.016Z,765.20
2022-08-20T20:45:12.459Z,764.90
2022-08-20T20:47:38.924Z,763.67
2022-08-20T20:50:05.360Z,766.17
2022-08-20T20:52:31.835Z,769.33
2022-08-20T20:54:58.276Z,762.63
2022-08-20T20:57:31.800Z,772.97
2022-08-20T21:00:05.261Z,763.67
2022-08-20T21:02:33.227Z,765.97
2022-08-20T21:04:59.669Z,764.00
2022-08-20T21:07:26.122Z,770.40
2022-08-20T21:09:52.545Z,771.47
2022-08-20T21:12:18.972Z,768.67
2022-08-20T21:14:45.402Z,766.60
2022-08-20T21:17:11.848Z,772.80
2022-08-20T21:19:43.832Z,766.33
2022-08-20T21:22:11.707Z,772.90
2022-08-20T21:24:38.188Z,769.63
2022-08-20T21:27:04.623Z,772.13
2022-08-20T21:29:32.658Z,767.37
2022-08-20T21:31:59.492Z,770.87
2022-08-20T21:34:25.972Z,770.23
2022-08-20T21:36:52.407Z,768.67
2022-08-20T21:39:20.849Z,766.70
2022-08-20T21:41:47.301Z,771.03
2022-08-20T21:44:13.796Z,774.80
2022-08-20T21:46:41.865Z,771.83
2022-08-20T21:49:08.344Z,772.93
2022-08-20T21:51:35.948Z,770.03
2022-08-20T21:54:02.422Z,762.20
2022-08-20T21:56:28.849Z,771.20
2022-08-20T21:58:58.725Z,771.07
2022-08-20T22:01:25.257Z,769.57
2022-08-20T22:03:52.054Z,774.10
2022-08-20T22:06:18.547Z,771.40
2022-08-20T22:08:45.011Z,772.20
2022-08-20T22:11:14.483Z,777.33
2022-08-20T22:13:40.921Z,770.70
2022-08-20T22:16:07.353Z,769.97
2022-08-20T22:18:33.840Z,774.57
2022-08-20T22:21:03.217Z,762.70
2022-08-20T22:23:29.649Z,770.20
2022-08-20T22:25:56.086Z,779.50
2022-08-20T22:28:22.536Z,772.80
2022-08-20T22:30:48.979Z,776.47
2022-08-20T22:33:15.441Z,776.70
2022-08-20T22:35:41.869Z,773.97
2022-08-20T22:38:08.512Z,773.03
2022-08-20T22:40:34.956Z,775.27
2022-08-20T22:43:01.417Z,773.63
2022-08-20T22:45:27.887Z,772.07
2022-08-20T22:47:54.361Z,769.93
2022-08-20T22:50:20.796Z,770.57
2022-08-20T22:52:47.232Z,769.70
2022-08-20T22:55:13.665Z,771.53
2022-08-20T22:57:40.092Z,769.60
2022-08-20T23:00:06.559Z,770.40
2022-08-20T23:02:32.993Z,768.63
2022-08-20T23:04:59.462Z,771.43
2022-08-20T23:07:25.891Z,767.27
2022-08-20T23:09:52.349Z,772.70
2022-08-20T23:12:18.782Z,767.70
2022-08-20T23:14:45.281Z,769.80
2022-08-20T23:17:13.669Z,772.30
2022-08-20T23:19:40.368Z,769.37
2022-08-20T23:22:06.826Z,768.30
2022-08-20T23:24:33.277Z,765.63
2022-08-20T23:26:59.725Z,767.90
2022-08-20T23:29:32.826Z,771.53
2022-08-20T23:32:06.777Z,774.00
2022-08-20T23:34:33.228Z,772.30
2022-08-20T23:37:19.254Z,779.03
2022-08-20T23:39:45.756Z,773.63
2022-08-20T23:42:12.192Z,769.40
2022-08-20T23:44:38.669Z,773.67
2022-08-20T23:47:05.139Z,773.83
2022-08-20T23:49:31.567Z,771.50
2022-08-20T23:51:58.017Z,774.83
2022-08-20T23:54:24.471Z,776.20
2022-08-20T23:56:50.927Z,771.60
2022-08-20T23:59:17.373Z,774.83
